Flight Number: EUR3058 Duration: 11:00
Departure: Paris Charles-de-Gaulle (LFPG) at 08:00 Distance: 4964 Nm
Arrival: Mexico City Int'l Airport (MMMX) at 19:00 Equipment: A340

Weather Information
Paris-Aeroport Charles De Gaulle, France (LFPG) 49-01N 002-32E 109M Sep 21, 2017 - 10:00 AM EDT / 2017.09.21 1400 UTC
Wind: from the SSE (150 degrees) at 9 MPH (8 KT) (direction variable):0
Visibility: greater than 7 mile(s):0 Temperature: 68 F (20 C) Dew Point: 46 F (8 C) Relative Humidity: 45% Pressure (altimeter): 30.06 in. Hg (1018 hPa)
ob: LFPG 211400Z 15008KT 110V200 CAVOK 20/08 Q1018 NOSIG cycle: 14
Sunrise: 05:39 Sunset: 17:45 (UTC)

Mexico City / Licenci, Mexico (MMMX) 19-26N 099-06W Sep 21, 2017 - 09:43 AM EDT / 2017.09.21 1343 UTC
Wind: from the ENE (070 degrees) at 5 MPH (4 KT):0
Visibility: 7 mile(s):0
Sky conditions: mostly cloudy Temperature: 60 F (16 C) Dew Point: 55 F (13 C) Relative Humidity: 82% Pressure (altimeter): 30.29 in. Hg (1025 hPa)
ob: MMMX 211343Z 07004KT 7SM BKN020 BKN080 16/13 A3029 NOSIG RMK 8/530 HZY CU cycle: 13
Sunrise: 12:27 Sunset: 00:30 (UTC)

TAF:2017/09/21 12:55 TAF COR MMMX 211350Z 2112/2218 30005KT P6SM BKN020 BKN080 TX26/2121Z TN13/2112Z FM212100 08010KT P6SM BKN015CB OVC080 TEMPO 2122/2202 2SM TSRA FM220300 08005KT P6SM SCT020 BKN080 TEMPO 2203/2207 5SM RA FM221700 08005KT P6SM SCT020 BKN250

This route has never been flown.

Route map